Track Данилюк Никита Хабаровский край

Time Latitude Longitude Accuracy (66% radius in meters) Altitude (meters) Speed (km/hour) Bearing (degrees) Battery (%) GPS flag
06:14:12 43.171393 132.075827 6.5 80.699996948242 0 0 29 1 delete
06:13:57 43.171331 132.075823 5 81.599998474121 0.43999999761581 152.11120605469 29 1 delete
06:06:51 43.171390 132.075789 3.5 73.099998474121 0.10999999940395 27.625122070312 29 1 delete
03:16:03 43.176777 132.081316 3.5 133.10000610352 1.4800000190735 33.75 75 1 delete
03:16:00 43.176744 132.081255 4 132.60000610352 2 51.036987304688 75 1 delete
03:15:57 43.176704 132.081176 4 132.80000305176 1.7799999713898 51.465454101562 75 1 delete
03:15:54 43.176681 132.081098 4.5 132.89999389648 1.8199999332428 31.13525390625 75 1 delete
03:15:51 43.176639 132.081049 4.5 131.10000610352 0.72999995946884 75.305786132812 75 1 delete
03:15:45 43.176586 132.081010 5 130.39999389648 0.81000000238419 43.698120117188 75 1 delete
03:15:42 43.176541 132.080929 4 130.39999389648 1.9199999570847 32.838134765625 75 1 delete
03:15:39 43.176482 132.080873 4 130.19999694824 1.9499999284744 38.084106445312 75 1 delete
03:15:36 43.176444 132.080775 4.5 132.10000610352 1.9900000095367 61.292724609375 75 1 delete
03:15:33 43.176419 132.080687 4 133.19999694824 1.1899999380112 58.287963867188 75 1 delete
03:15:30 43.176410 132.080624 4 132.80000305176 1.1399999856949 96.39404296875 75 1 delete
03:15:21 43.176393 132.080517 3.5 132.30000305176 0 0 75 1 delete
03:15:12 43.176445 132.080499 5.5 130.89999389648 2.1299998760223 124.85412597656 75 1 delete
03:15:09 43.176527 132.080421 5.5 131.39999389648 2.2400000095367 129.84741210938 75 1 delete
03:15:06 43.176598 132.080331 5 131.19999694824 2.6900000572205 121.54724121094 75 1 delete
03:15:03 43.176686 132.080246 4 132.39999389648 1.8799999952316 154.87976074219 75 1 delete
03:15:00 43.176755 132.080220 4.5 133.30000305176 1.6299999952316 162.30102539062 75 1 delete
03:14:57 43.176802 132.080201 4.5 134 1.2599999904633 143.42102050781 75 1 delete
03:14:54 43.176853 132.080155 3.5 134.39999389648 1.0499999523163 131.68212890625 75 1 delete
03:14:48 43.176942 132.080155 4.5 136.10000610352 0.62000000476837 136.13708496094 75 1 delete
03:14:45 43.176967 132.080097 4 136.39999389648 0.38999998569489 101.30493164062 75 1 delete
03:14:39 43.177030 132.080094 4 137.39999389648 0.76999998092651 157.67578125 75 1 delete
03:14:36 43.177083 132.080068 3.5 138.60000610352 2.0699999332428 164.00939941406 75 1 delete
03:14:33 43.177163 132.080036 4 140 2.1299998760223 155.80810546875 75 1 delete
03:14:30 43.177238 132.080010 4 140.39999389648 1.8399999141693 166.77795410156 75 1 delete
03:14:27 43.177310 132.079975 4 141.69999694824 1.7599999904633 180.87890625 75 1 delete
03:14:21 43.177395 132.079887 4 143.69999694824 1.1899999380112 128.06762695312 75 1 delete
03:14:09 43.177443 132.079841 4 147.39999389648 0.51999998092651 156.77490234375 75 1 delete
03:14:06 43.177492 132.079818 4.5 147.5 1.3099999427795 165.48706054688 75 1 delete
03:14:03 43.177562 132.079810 4 147.89999389648 1.7199999094009 180.34057617188 75 1 delete
03:13:54 43.177611 132.079711 4 150.10000610352 1.0699999332428 105.67749023438 75 1 delete
03:13:51 43.177622 132.079646 4 151.5 1.2300000190735 100.31616210938 75 1 delete
03:13:45 43.177656 132.079591 5 154.10000610352 1.3299999237061 150.98510742188 75 1 delete
03:13:42 43.177703 132.079559 4.5 154.69999694824 2.6599998474121 162.333984375 75 1 delete
03:13:39 43.177753 132.079516 4 154.80000305176 1.1399999856949 184.21875 75 1 delete
03:13:33 43.177788 132.079473 4 154.39999389648 0 0 75 1 delete
03:13:27 43.177802 132.079401 4 153.19999694824 0.76999998092651 94.41650390625 75 1 delete
03:13:24 43.177790 132.079334 4 153.60000610352 1.6399999856949 64.2919921875 75 1 delete
03:13:21 43.177762 132.079262 4.5 154.60000610352 1.3099999427795 52.772827148438 75 1 delete
03:13:18 43.177775 132.079188 4.5 154.80000305176 1.3700000047684 99.744873046875 75 1 delete
03:13:15 43.177793 132.079108 4.5 155.30000305176 2.1399998664856 131.78100585938 75 1 delete
03:13:12 43.177828 132.079005 4.5 154.30000305176 1.7099999189377 111.87377929688 75 1 delete
03:13:09 43.177836 132.078906 5 154.10000610352 1.6399999856949 85.940551757812 75 1 delete
03:13:06 43.177850 132.078795 5 156.89999389648 1.6499999761581 95.95458984375 75 1 delete
03:13:03 43.177894 132.078691 4.5 159.60000610352 2.7200000286102 123.18420410156 75 1 delete
03:13:00 43.177966 132.078593 4.5 159.69999694824 2.7999999523163 128.17199707031 75 1 delete
03:12:57 43.178022 132.078471 4 159.89999389648 2.6199998855591 104.93041992188 75 1 delete